Erie (ERI/KERI)

Map

Destinations

Information

Location
Erie, PA
Local Time
09:15 / 9:15 am
GMT Time
14:15 / 2:15 pm
Gates
Unassigned
No FAA reported delays
METAR KERI 221351Z 00000KT 8SM FEW055 SCT085 BKN110 09/07 A2966 RMK AO2 RAB05E38 SLP044 P0000 T00890072 $
TAF KERI 221140Z 2212/2312 16005KT P6SM SCT060 OVC100 FM221600 07008KT P6SM OVC035 FM222100 07010KT P6SM OVC025
  • No charts available